createdAt,value
2017-12-22T00:02:30.578Z,94.00
2017-12-22T00:05:04.324Z,93.90
2017-12-22T00:07:38.107Z,93.90
2017-12-22T00:10:13.331Z,93.90
2017-12-22T00:12:47.058Z,93.90
2017-12-22T00:15:20.930Z,94.10
2017-12-22T00:17:54.803Z,94.20
2017-12-22T00:20:28.938Z,94.20
2017-12-22T00:23:02.725Z,94.20
2017-12-22T00:25:36.536Z,94.20
2017-12-22T00:28:10.670Z,94.20
2017-12-22T00:30:44.468Z,94.10
2017-12-22T00:33:19.072Z,94.20
2017-12-22T00:35:52.880Z,94.20
2017-12-22T00:38:27.508Z,94.30
2017-12-22T00:41:01.331Z,94.20
2017-12-22T00:43:35.333Z,94.40
2017-12-22T00:46:09.926Z,94.40
2017-12-22T00:48:44.571Z,94.70
2017-12-22T00:51:18.198Z,94.50
2017-12-22T00:53:52.201Z,94.60
2017-12-22T00:56:26.727Z,94.70
2017-12-22T00:59:00.412Z,94.70
2017-12-22T01:01:34.910Z,94.50
2017-12-22T01:04:09.485Z,94.40
2017-12-22T01:06:43.181Z,94.40
2017-12-22T01:09:18.001Z,94.50
2017-12-22T01:11:52.601Z,94.10
2017-12-22T01:14:26.384Z,94.10
2017-12-22T01:17:06.551Z,93.90
2017-12-22T01:19:40.770Z,93.90
2017-12-22T01:22:14.521Z,94.00
2017-12-22T01:24:49.113Z,93.90
2017-12-22T01:27:23.640Z,94.40
2017-12-22T01:29:58.169Z,94.20
2017-12-22T01:32:33.073Z,94.20
2017-12-22T01:35:06.788Z,94.20
2017-12-22T01:37:40.636Z,94.10
2017-12-22T01:40:15.211Z,93.90
2017-12-22T01:42:48.935Z,93.90
2017-12-22T01:45:23.350Z,94.00
2017-12-22T01:47:57.816Z,94.00
2017-12-22T01:50:31.561Z,94.00
2017-12-22T01:53:05.493Z,94.10
2017-12-22T01:55:39.295Z,94.10
2017-12-22T01:58:13.536Z,94.10
2017-12-22T02:00:47.636Z,94.10
2017-12-22T02:03:21.468Z,94.10
2017-12-22T02:05:56.040Z,94.10
2017-12-22T02:08:29.927Z,94.10
2017-12-22T02:11:03.704Z,94.20
2017-12-22T02:13:38.426Z,94.30
2017-12-22T02:16:12.818Z,94.20
2017-12-22T02:18:46.624Z,94.20
2017-12-22T02:21:20.357Z,94.20
2017-12-22T02:23:54.870Z,94.40
2017-12-22T02:26:28.495Z,94.40
2017-12-22T02:29:02.343Z,94.30
2017-12-22T02:31:36.869Z,94.40
2017-12-22T02:34:11.424Z,94.50
2017-12-22T02:36:46.035Z,94.50
2017-12-22T02:39:20.571Z,94.60
2017-12-22T02:41:54.168Z,94.50
2017-12-22T02:44:28.192Z,94.60
2017-12-22T02:47:01.987Z,94.70
2017-12-22T02:49:36.109Z,94.80
2017-12-22T02:52:09.917Z,94.70
2017-12-22T02:54:43.744Z,94.50
2017-12-22T02:57:17.523Z,94.70
2017-12-22T02:59:51.704Z,94.70
2017-12-22T03:02:25.533Z,94.60
2017-12-22T03:04:59.378Z,94.40
2017-12-22T03:07:33.939Z,94.50
2017-12-22T03:10:08.600Z,94.50
2017-12-22T03:12:43.128Z,94.50
2017-12-22T03:15:16.849Z,94.50
2017-12-22T03:17:50.742Z,94.40
2017-12-22T03:20:24.592Z,94.90
2017-12-22T03:22:58.400Z,94.50
2017-12-22T03:25:32.933Z,94.60
2017-12-22T03:28:06.731Z,94.50
2017-12-22T03:30:41.291Z,94.60
2017-12-22T03:33:15.336Z,94.50
2017-12-22T03:35:50.621Z,94.40
2017-12-22T03:38:25.173Z,94.50
2017-12-22T03:40:59.765Z,94.60
2017-12-22T03:43:33.540Z,94.50
2017-12-22T03:46:08.100Z,94.80
2017-12-22T03:48:43.232Z,94.80
2017-12-22T03:51:17.013Z,94.70
2017-12-22T03:53:51.916Z,94.70
2017-12-22T03:56:26.580Z,94.80
2017-12-22T03:59:00.563Z,94.80
2017-12-22T04:01:34.467Z,94.90
2017-12-22T04:04:09.079Z,94.80
2017-12-22T04:06:42.788Z,94.80
2017-12-22T04:09:16.559Z,94.80
2017-12-22T04:11:50.404Z,94.80
2017-12-22T04:14:24.191Z,94.60
2017-12-22T04:16:58.308Z,94.80
2017-12-22T04:19:32.805Z,94.80
2017-12-22T04:22:06.607Z,94.80
2017-12-22T04:24:41.136Z,94.70
2017-12-22T04:27:14.892Z,94.70
2017-12-22T04:29:48.682Z,94.60
2017-12-22T04:32:22.492Z,94.40
2017-12-22T04:34:56.257Z,94.50
2017-12-22T04:37:30.427Z,94.30
2017-12-22T04:40:04.293Z,94.40
2017-12-22T04:42:38.931Z,94.40
2017-12-22T04:45:12.647Z,94.40
2017-12-22T04:47:47.252Z,94.50
2017-12-22T04:50:20.949Z,94.50
2017-12-22T04:52:54.697Z,94.70
2017-12-22T04:55:29.292Z,95.00
2017-12-22T05:00:52.572Z,95.00
2017-12-22T05:03:26.452Z,95.10
2017-12-22T05:06:00.267Z,95.10
2017-12-22T05:08:34.103Z,95.30
2017-12-22T05:11:07.898Z,95.50
2017-12-22T05:13:41.716Z,95.50
2017-12-22T05:16:15.554Z,95.60
2017-12-22T05:18:50.104Z,95.80
2017-12-22T05:21:23.983Z,95.80
2017-12-22T05:23:58.527Z,95.90
2017-12-22T05:26:32.549Z,95.90
2017-12-22T05:29:06.362Z,95.90
2017-12-22T05:31:40.210Z,96.00
2017-12-22T05:34:14.789Z,96.10
2017-12-22T05:36:48.906Z,96.10
2017-12-22T05:39:22.733Z,96.00
2017-12-22T05:41:57.369Z,96.30
2017-12-22T05:44:31.079Z,96.20
2017-12-22T05:47:06.418Z,96.40
2017-12-22T05:49:41.026Z,96.30
2017-12-22T05:52:14.805Z,96.30
2017-12-22T05:54:48.608Z,96.40
2017-12-22T05:57:23.188Z,96.60
2017-12-22T05:59:56.993Z,96.50
2017-12-22T06:02:30.795Z,96.60
2017-12-22T06:05:04.666Z,96.60
2017-12-22T06:07:38.481Z,96.60
2017-12-22T06:10:12.264Z,96.60
2017-12-22T06:12:46.936Z,96.50
2017-12-22T06:15:20.699Z,96.40
2017-12-22T06:17:54.520Z,96.40
2017-12-22T06:20:28.961Z,96.70
2017-12-22T06:23:02.639Z,96.70
2017-12-22T06:25:36.452Z,96.50
2017-12-22T06:28:10.230Z,96.60
2017-12-22T06:30:44.801Z,96.50
2017-12-22T06:33:19.392Z,96.50
2017-12-22T06:35:53.835Z,96.30
2017-12-22T06:38:27.652Z,96.60
2017-12-22T06:41:01.568Z,96.60
2017-12-22T06:43:35.415Z,96.60
2017-12-22T06:46:10.095Z,96.60
2017-12-22T06:48:43.840Z,96.60
2017-12-22T06:51:18.457Z,96.70
2017-12-22T06:53:52.167Z,96.70
2017-12-22T06:56:25.937Z,96.70
2017-12-22T06:59:00.025Z,96.80
2017-12-22T07:01:33.740Z,96.80
2017-12-22T07:04:08.260Z,97.00
2017-12-22T07:06:42.873Z,96.70
2017-12-22T07:09:16.588Z,97.00
2017-12-22T07:11:51.230Z,96.90
2017-12-22T07:14:25.526Z,96.80
2017-12-22T07:16:59.356Z,96.80
2017-12-22T07:19:33.969Z,96.60
2017-12-22T07:22:07.685Z,96.60
2017-12-22T07:24:42.337Z,96.50
2017-12-22T07:27:16.912Z,96.50
2017-12-22T07:29:50.758Z,96.50
2017-12-22T07:32:24.570Z,96.60
2017-12-22T07:34:58.513Z,96.70
2017-12-22T07:37:32.401Z,96.70
2017-12-22T07:40:06.148Z,96.50
2017-12-22T07:42:40.003Z,96.60
2017-12-22T07:45:14.560Z,96.50
2017-12-22T07:47:48.447Z,96.30
2017-12-22T07:50:22.215Z,96.40
2017-12-22T07:52:55.921Z,96.20
2017-12-22T07:55:29.751Z,96.20
2017-12-22T07:58:04.305Z,96.20
2017-12-22T08:00:38.872Z,96.20
2017-12-22T08:03:12.668Z,96.20
2017-12-22T08:05:46.364Z,96.20
2017-12-22T08:08:20.983Z,96.20
2017-12-22T08:10:54.776Z,96.20
2017-12-22T08:13:28.568Z,96.00
2017-12-22T08:16:03.141Z,96.00
2017-12-22T08:18:36.844Z,95.90
2017-12-22T08:21:10.694Z,95.80
2017-12-22T08:23:45.345Z,95.70
2017-12-22T08:26:19.181Z,95.70
2017-12-22T08:28:53.691Z,94.70
2017-12-22T08:31:28.388Z,94.90
2017-12-22T08:34:02.140Z,94.90
2017-12-22T08:36:36.004Z,95.00
2017-12-22T08:39:09.732Z,94.90
2017-12-22T08:41:44.379Z,94.20
2017-12-22T08:44:18.062Z,94.20
2017-12-22T08:46:52.496Z,94.30
2017-12-22T08:49:26.352Z,94.30
2017-12-22T08:52:00.124Z,94.60
2017-12-22T08:54:34.696Z,93.90
2017-12-22T08:57:08.404Z,93.90
2017-12-22T08:59:42.264Z,94.20
2017-12-22T09:02:15.943Z,93.50
2017-12-22T09:04:50.064Z,93.20
2017-12-22T09:07:23.868Z,93.10
2017-12-22T09:09:57.880Z,93.40
2017-12-22T09:12:31.668Z,93.50
2017-12-22T09:15:05.553Z,93.80
2017-12-22T09:17:39.248Z,93.80
2017-12-22T09:20:13.157Z,93.90
2017-12-22T09:22:47.700Z,94.40
2017-12-22T09:25:21.571Z,94.40
2017-12-22T09:27:56.181Z,94.60
2017-12-22T09:30:30.347Z,94.60
2017-12-22T09:33:05.138Z,94.40
2017-12-22T09:35:39.629Z,94.20
2017-12-22T09:38:13.540Z,94.20
2017-12-22T09:40:48.116Z,94.20
2017-12-22T09:43:21.972Z,94.20
2017-12-22T09:45:56.750Z,93.90
2017-12-22T09:48:30.730Z,94.20
2017-12-22T09:51:06.092Z,94.00
2017-12-22T09:53:40.002Z,94.00
2017-12-22T09:56:14.500Z,93.40
2017-12-22T09:58:48.862Z,93.70
2017-12-22T10:01:22.548Z,93.70
2017-12-22T10:03:56.307Z,93.70
2017-12-22T10:06:30.080Z,93.80
2017-12-22T10:09:03.852Z,93.70
2017-12-22T10:11:38.653Z,93.50
2017-12-22T10:14:12.416Z,93.50
2017-12-22T10:16:47.822Z,93.30
2017-12-22T10:19:22.480Z,93.50
2017-12-22T10:21:56.409Z,93.50
2017-12-22T10:24:30.100Z,93.60
2017-12-22T10:27:03.968Z,93.30
2017-12-22T10:29:38.524Z,93.70
2017-12-22T10:32:12.468Z,93.90
2017-12-22T10:34:46.329Z,93.90
2017-12-22T10:37:20.396Z,94.00
2017-12-22T10:39:54.164Z,93.80
2017-12-22T10:42:27.913Z,94.00
2017-12-22T10:45:01.575Z,93.80
2017-12-22T10:47:36.260Z,94.10
2017-12-22T10:50:09.941Z,94.10
2017-12-22T10:52:43.753Z,94.10
2017-12-22T10:55:17.557Z,94.00
2017-12-22T10:57:51.348Z,94.20
2017-12-22T11:00:28.175Z,94.10
2017-12-22T11:03:02.064Z,94.30
2017-12-22T11:05:35.824Z,94.10
2017-12-22T11:08:10.400Z,94.00
2017-12-22T11:10:44.131Z,94.00
2017-12-22T11:13:18.026Z,93.70
2017-12-22T11:15:51.970Z,93.90
2017-12-22T11:18:25.832Z,94.10
2017-12-22T11:21:00.122Z,94.10
2017-12-22T11:23:33.810Z,94.30
2017-12-22T11:26:07.719Z,94.00
2017-12-22T11:28:41.584Z,94.10
2017-12-22T11:31:15.373Z,93.80
2017-12-22T11:33:49.053Z,93.70
2017-12-22T11:36:23.664Z,93.80
2017-12-22T11:38:58.258Z,93.60
2017-12-22T11:41:32.321Z,93.60
2017-12-22T11:44:06.017Z,93.40
2017-12-22T11:46:40.616Z,93.60
2017-12-22T11:49:14.380Z,93.60
2017-12-22T11:51:48.200Z,93.60
2017-12-22T11:54:21.972Z,93.80
2017-12-22T11:56:55.782Z,93.90
2017-12-22T11:59:30.410Z,93.90
2017-12-22T12:02:04.993Z,93.50
2017-12-22T12:04:38.741Z,93.60
2017-12-22T12:07:12.554Z,93.80
2017-12-22T12:09:46.374Z,94.00
2017-12-22T12:12:20.206Z,93.90
2017-12-22T12:14:54.676Z,94.10
2017-12-22T12:17:28.529Z,94.10
2017-12-22T12:20:02.976Z,94.20
2017-12-22T12:22:37.057Z,94.20
2017-12-22T12:25:10.712Z,94.20
2017-12-22T12:27:44.520Z,94.20
2017-12-22T12:30:18.333Z,94.30
2017-12-22T12:32:52.118Z,94.40
2017-12-22T12:35:25.969Z,94.40
2017-12-22T12:37:59.873Z,94.30
2017-12-22T12:40:33.881Z,94.30
2017-12-22T12:43:08.663Z,94.60
2017-12-22T12:45:42.505Z,94.60
2017-12-22T12:48:16.158Z,94.50
2017-12-22T12:50:50.022Z,94.50
2017-12-22T12:53:23.792Z,94.50
2017-12-22T12:55:57.552Z,94.50
2017-12-22T12:58:31.349Z,94.50
2017-12-22T13:01:05.120Z,94.70
2017-12-22T13:03:39.617Z,94.70
2017-12-22T13:06:14.116Z,94.40
2017-12-22T13:08:47.964Z,94.40
2017-12-22T13:11:21.756Z,94.50
2017-12-22T13:13:55.542Z,94.50
2017-12-22T13:16:30.176Z,94.50
2017-12-22T13:19:04.704Z,94.60
2017-12-22T13:21:39.325Z,94.70
2017-12-22T13:24:13.219Z,94.70
2017-12-22T13:26:47.112Z,94.60
2017-12-22T13:29:20.975Z,94.50
2017-12-22T13:31:54.805Z,94.40
2017-12-22T13:34:29.688Z,94.40
2017-12-22T13:37:03.523Z,94.00
2017-12-22T13:39:37.395Z,93.80
2017-12-22T13:42:11.920Z,94.10
2017-12-22T13:44:46.605Z,94.40
2017-12-22T13:47:20.432Z,94.30
2017-12-22T13:49:58.860Z,94.40
2017-12-22T13:52:33.389Z,94.20
2017-12-22T13:55:07.216Z,94.20
2017-12-22T13:57:41.973Z,94.00
2017-12-22T14:00:15.627Z,94.10
2017-12-22T14:02:50.249Z,95.00
2017-12-22T14:05:25.598Z,94.70
2017-12-22T14:07:59.508Z,94.70
2017-12-22T14:10:33.149Z,94.70
2017-12-22T14:13:06.867Z,94.90
2017-12-22T14:15:40.705Z,94.70
2017-12-22T14:18:15.329Z,94.70
2017-12-22T14:20:49.232Z,94.70
2017-12-22T14:23:22.993Z,94.60
2017-12-22T14:25:57.824Z,94.70
2017-12-22T14:28:32.758Z,94.70
2017-12-22T14:31:07.384Z,94.50
2017-12-22T14:33:41.202Z,94.40
2017-12-22T14:36:15.658Z,94.60
2017-12-22T14:38:49.480Z,94.30
2017-12-22T14:41:23.302Z,94.50
2017-12-22T14:43:57.153Z,94.20
2017-12-22T14:46:30.935Z,94.20
2017-12-22T14:49:05.813Z,94.20
2017-12-22T14:51:40.532Z,94.50
2017-12-22T14:54:14.141Z,94.50
2017-12-22T14:56:47.976Z,94.30
2017-12-22T14:59:22.507Z,94.20
2017-12-22T15:01:56.305Z,94.20
2017-12-22T15:04:30.056Z,94.10
2017-12-22T15:07:04.688Z,94.20
2017-12-22T15:09:38.660Z,94.20
2017-12-22T15:12:12.504Z,94.40
2017-12-22T15:14:46.948Z,94.00
2017-12-22T15:17:20.800Z,94.00
2017-12-22T15:19:55.416Z,94.10
2017-12-22T15:22:29.412Z,94.10
2017-12-22T15:25:03.117Z,93.90
2017-12-22T15:27:36.957Z,93.80
2017-12-22T15:30:10.814Z,93.80
2017-12-22T15:32:46.505Z,94.10
2017-12-22T15:35:20.910Z,94.30
2017-12-22T15:37:54.805Z,94.30
2017-12-22T15:40:28.631Z,94.10
2017-12-22T15:43:02.539Z,94.40
2017-12-22T15:45:36.401Z,94.60
2017-12-22T15:48:10.961Z,95.40
2017-12-22T15:50:44.768Z,95.40
2017-12-22T15:53:19.487Z,95.60
2017-12-22T15:55:53.395Z,95.60
2017-12-22T15:58:27.882Z,96.00
2017-12-22T16:01:02.028Z,96.00
2017-12-22T16:03:35.754Z,96.20
2017-12-22T16:06:09.656Z,96.20
2017-12-22T16:08:44.233Z,96.30
2017-12-22T16:11:17.885Z,96.40
2017-12-22T16:13:51.680Z,96.40
2017-12-22T16:16:25.524Z,96.50
2017-12-22T16:18:59.597Z,96.60
2017-12-22T16:21:33.424Z,96.60
2017-12-22T16:24:08.043Z,96.80
2017-12-22T16:26:41.777Z,96.70
2017-12-22T16:29:16.440Z,96.50
2017-12-22T16:31:51.769Z,96.40
2017-12-22T16:34:25.484Z,96.40
2017-12-22T16:36:59.984Z,96.70
2017-12-22T16:39:33.809Z,96.70
2017-12-22T16:42:07.492Z,96.60
2017-12-22T16:44:42.076Z,96.80
2017-12-22T16:47:15.865Z,96.80
2017-12-22T16:49:50.388Z,96.90
2017-12-22T16:52:24.173Z,96.90
2017-12-22T16:54:57.904Z,96.90
2017-12-22T16:57:31.744Z,96.90
2017-12-22T17:00:06.205Z,96.90
2017-12-22T17:02:40.002Z,96.90
2017-12-22T17:05:14.662Z,97.00
2017-12-22T17:07:48.668Z,97.00
2017-12-22T17:10:22.456Z,97.10
2017-12-22T17:12:56.196Z,96.90
2017-12-22T17:15:30.333Z,97.00
2017-12-22T17:18:04.135Z,97.00
2017-12-22T17:20:38.252Z,97.00
2017-12-22T17:23:13.019Z,96.90
2017-12-22T17:25:47.594Z,97.00
2017-12-22T17:28:22.123Z,97.10
2017-12-22T17:30:55.940Z,97.00
2017-12-22T17:33:29.840Z,97.10
2017-12-22T17:36:03.641Z,97.10
2017-12-22T17:38:37.338Z,97.00
2017-12-22T17:41:11.078Z,97.00
2017-12-22T17:43:44.651Z,97.00
2017-12-22T17:46:18.436Z,97.00
2017-12-22T17:48:52.192Z,96.80
2017-12-22T17:51:25.926Z,96.90
2017-12-22T17:53:59.849Z,96.50
2017-12-22T17:56:34.425Z,96.70
2017-12-22T17:59:09.889Z,96.40
2017-12-22T18:01:44.474Z,96.50
2017-12-22T18:04:18.136Z,96.40
2017-12-22T18:06:52.743Z,96.40
2017-12-22T18:09:26.466Z,96.40
2017-12-22T18:12:01.080Z,96.30
2017-12-22T18:14:34.831Z,96.30
2017-12-22T18:17:08.635Z,96.20
2017-12-22T18:19:42.340Z,96.20
2017-12-22T18:22:16.891Z,96.30
2017-12-22T18:24:50.760Z,96.30
2017-12-22T18:27:25.532Z,96.10
2017-12-22T18:29:59.235Z,96.10
2017-12-22T18:32:33.088Z,96.20
2017-12-22T18:35:07.719Z,96.20
2017-12-22T18:37:41.794Z,96.20
2017-12-22T18:40:16.404Z,95.60
2017-12-22T18:42:50.189Z,95.60
2017-12-22T18:45:24.011Z,95.60
2017-12-22T18:47:57.810Z,95.70
2017-12-22T18:50:31.604Z,95.90
2017-12-22T18:53:05.495Z,95.70
2017-12-22T18:55:39.385Z,95.60
2017-12-22T18:58:13.117Z,95.70
2017-12-22T19:00:46.951Z,95.60
2017-12-22T19:03:30.603Z,95.70
2017-12-22T19:06:04.432Z,95.70
2017-12-22T19:08:38.039Z,95.80
2017-12-22T19:11:11.705Z,95.60
2017-12-22T19:13:45.580Z,95.70
2017-12-22T19:16:19.260Z,95.70
2017-12-22T19:18:53.046Z,95.90
2017-12-22T19:21:26.682Z,95.90
2017-12-22T19:24:00.543Z,95.60
2017-12-22T19:26:34.345Z,95.70
2017-12-22T19:29:08.261Z,95.90
2017-12-22T19:31:42.096Z,95.90
2017-12-22T19:34:16.752Z,95.90
2017-12-22T19:36:50.781Z,95.80
2017-12-22T19:39:25.441Z,96.00
2017-12-22T19:41:59.232Z,96.00
2017-12-22T19:44:33.054Z,95.90
2017-12-22T19:47:06.952Z,96.00
2017-12-22T19:49:41.551Z,96.20
2017-12-22T19:52:16.176Z,96.10
2017-12-22T19:54:50.165Z,96.10
2017-12-22T19:57:23.980Z,96.20
2017-12-22T19:59:58.003Z,96.20
2017-12-22T20:02:31.870Z,96.20
2017-12-22T20:05:06.543Z,96.20
2017-12-22T20:07:40.360Z,96.10
2017-12-22T20:10:14.164Z,96.20
2017-12-22T20:12:47.967Z,96.00
2017-12-22T20:15:22.377Z,96.50
2017-12-22T20:17:56.126Z,96.20
2017-12-22T20:20:30.810Z,96.50
2017-12-22T20:23:04.721Z,96.20
2017-12-22T20:25:38.515Z,96.40
2017-12-22T20:28:12.374Z,96.40
2017-12-22T20:30:46.173Z,96.40
2017-12-22T20:33:19.924Z,96.30
2017-12-22T20:35:54.191Z,96.30
2017-12-22T20:38:28.783Z,96.40
2017-12-22T20:41:03.458Z,96.10
2017-12-22T20:43:37.716Z,96.10
2017-12-22T20:46:12.259Z,96.10
2017-12-22T20:48:46.109Z,96.00
2017-12-22T20:51:20.390Z,96.40
2017-12-22T20:53:54.151Z,96.10
2017-12-22T20:56:28.442Z,96.00
2017-12-22T20:59:02.409Z,96.10
2017-12-22T21:01:36.535Z,96.00
2017-12-22T21:04:11.130Z,96.00
2017-12-22T21:06:45.052Z,96.00
2017-12-22T21:09:18.955Z,95.80
2017-12-22T21:11:52.873Z,95.90
2017-12-22T21:14:26.899Z,95.80
2017-12-22T21:17:00.742Z,95.40
2017-12-22T21:19:34.518Z,95.40
2017-12-22T21:22:08.320Z,95.40
2017-12-22T21:24:42.314Z,95.30
2017-12-22T21:27:16.624Z,95.30
2017-12-22T21:29:50.442Z,95.40
2017-12-22T21:32:24.325Z,95.00
2017-12-22T21:34:58.190Z,95.30
2017-12-22T21:37:32.176Z,95.30
2017-12-22T21:40:06.041Z,95.20
2017-12-22T21:42:39.801Z,95.20
2017-12-22T21:45:13.648Z,95.20
2017-12-22T21:47:47.464Z,95.20
2017-12-22T21:50:21.391Z,95.20
2017-12-22T21:52:55.330Z,95.10
2017-12-22T21:55:29.088Z,95.10
2017-12-22T21:58:02.968Z,95.20
2017-12-22T22:00:37.519Z,95.40
2017-12-22T22:03:11.243Z,95.30
2017-12-22T22:05:45.100Z,95.60
2017-12-22T22:08:18.860Z,95.70
2017-12-22T22:10:52.851Z,95.70
2017-12-22T22:13:26.772Z,95.90
2017-12-22T22:16:00.670Z,95.90
2017-12-22T22:18:34.564Z,96.00
2017-12-22T22:21:08.315Z,95.80
2017-12-22T22:23:42.196Z,95.80
2017-12-22T22:26:16.062Z,95.90
2017-12-22T22:28:49.875Z,96.00
2017-12-22T22:31:23.888Z,96.00
2017-12-22T22:33:57.865Z,95.90
2017-12-22T22:36:31.643Z,96.00
2017-12-22T22:39:05.544Z,96.00
2017-12-22T22:41:40.294Z,96.20
2017-12-22T22:44:14.895Z,96.00
2017-12-22T22:46:48.749Z,96.00
2017-12-22T22:49:22.481Z,95.70
2017-12-22T22:51:57.154Z,95.40
2017-12-22T22:54:32.498Z,95.50
2017-12-22T22:57:06.355Z,95.50
2017-12-22T22:59:41.012Z,95.40
2017-12-22T23:02:15.746Z,95.80
2017-12-22T23:04:49.473Z,95.40
2017-12-22T23:07:23.236Z,95.50
2017-12-22T23:09:57.075Z,95.50
2017-12-22T23:12:31.848Z,95.30
2017-12-22T23:15:06.500Z,95.30
2017-12-22T23:17:40.355Z,95.30
2017-12-22T23:20:14.092Z,95.30
2017-12-22T23:22:47.918Z,95.40
2017-12-22T23:25:21.842Z,95.30
2017-12-22T23:27:55.701Z,95.30
2017-12-22T23:30:29.641Z,95.40
2017-12-22T23:33:03.440Z,95.30
2017-12-22T23:35:37.922Z,95.30
2017-12-22T23:38:12.136Z,95.30
2017-12-22T23:40:45.915Z,95.30
2017-12-22T23:43:19.811Z,95.30
2017-12-22T23:45:54.436Z,95.40
2017-12-22T23:48:28.237Z,95.40
2017-12-22T23:51:02.077Z,95.40
2017-12-22T23:53:36.058Z,95.40
2017-12-22T23:56:09.950Z,95.40
2017-12-22T23:58:44.537Z,95.50
